| time (UTC) | temp F | wind direction | speed knots | gust knots | rain 1hr in | rain 24hr in | rain mn in | humidity % | barometer mb |
| 20260507093016 | 52 | 248 | 1.7 | 5.2 | 0.00 | 0.02 | 0.01 | 81 | 1014.4 |
| 20260507090015 | 52 | 225 | 1.7 | 7.8 | 0.00 | 0.02 | 0.01 | 81 | 1014.1 |
| 20260507083016 | 52 | 270 | 1.7 | 7.0 | 0.00 | 0.02 | 0.01 | 80 | 1013.9 |
| 20260507080015 | 51 | 180 | 1.7 | 6.1 | 0.00 | 0.02 | 0.01 | 84 | 1013.7 |
| 20260507073016 | 50 | 248 | 0.9 | 4.3 | 0.00 | 0.02 | 0.01 | 87 | 1013.5 |
| 20260507070015 | 49 | 248 | 0.9 | 2.6 | 0.00 | 0.02 | 0.01 | 89 | 1013.4 |
| 20260507063015 | 49 | 225 | 0.9 | 2.6 | 0.00 | 0.02 | 0.01 | 90 | 1013.1 |
| 20260507060015 | 49 | 0.0 | 2.6 | 0.00 | 0.02 | 0.01 | 91 | 1012.7 | |
| 20260507053017 | 48 | 0.0 | 1.7 | 0.00 | 0.02 | 0.01 | 91 | 1012.5 | |
| 20260507050017 | 48 | 0.0 | 2.6 | 0.00 | 0.02 | 0.01 | 91 | 1012.1 | |
| 20260507043017 | 48 | 0.0 | 0.9 | 0.01 | 0.02 | 0.01 | 93 | 1011.8 | |
| 20260507040017 | 48 | 0.0 | 0.9 | 0.01 | 0.02 | 0.01 | 93 | 1011.6 | |
| 20260507033017 | 48 | 0.0 | 0.9 | 0.00 | 0.01 | 0.00 | 90 | 1011.5 | |
| 20260507030017 | 48 | 0.0 | 2.6 | 0.00 | 0.01 | 0.00 | 88 | 1011.4 | |
| 20260507023017 | 49 | 0.0 | 2.6 | 0.00 | 0.01 | 0.00 | 87 | 1011.4 | |
| 20260507020017 | 49 | 0.0 | 1.7 | 0.00 | 0.01 | 0.00 | 88 | 1011.1 | |
| 20260507013017 | 49 | 270 | 0.9 | 2.6 | 0.00 | 0.01 | 0.00 | 87 | 1011.0 |
| 20260507010017 | 49 | 248 | 0.9 | 2.6 | 0.00 | 0.01 | 0.00 | 87 | 1010.8 |
| 20260507003016 | 49 | 270 | 0.9 | 3.5 | 0.00 | 0.02 | 0.00 | 87 | 1010.5 |
| 20260507000016 | 50 | 0 | 0.9 | 4.3 | 0.00 | 0.02 | 0.00 | 87 | 1010.4 |
| 20260506233017 | 50 | 0.0 | 3.5 | 0.00 | 0.02 | 0.00 | 89 | 1010.4 | |
| 20260506230017 | 50 | 0 | 0.9 | 3.5 | 0.00 | 0.02 | 0.00 | 88 | 1010.2 |
| 20260506223016 | 51 | 0 | 0.9 | 5.2 | 0.00 | 0.02 | 0.00 | 86 | 1009.9 |
| 20260506220016 | 51 | 248 | 0.9 | 3.5 | 0.00 | 0.02 | 0.02 | 86 | 1009.5 |
| 20260506213018 | 51 | 0 | 0.9 | 3.5 | 0.00 | 0.02 | 0.02 | 86 | 1009.3 |
| 20260506210017 | 51 | 0 | 0.9 | 2.6 | 0.00 | 0.02 | 0.02 | 86 | 1008.9 |
| 20260506203017 | 52 | 338 | 0.9 | 2.6 | 0.00 | 0.02 | 0.02 | 86 | 1008.9 |
| 20260506200019 | 52 | 0 | 0.9 | 5.2 | 0.00 | 0.02 | 0.02 | 85 | 1008.8 |
| 20260506193019 | 53 | 338 | 0.9 | 6.1 | 0.00 | 0.02 | 0.02 | 86 | 1008.3 |
| 20260506190018 | 53 | 315 | 0.9 | 6.1 | 0.00 | 0.02 | 0.02 | 85 | 1007.9 |
| 20260506183017 | 54 | 0 | 0.9 | 6.1 | 0.00 | 0.03 | 0.02 | 84 | 1007.4 |
| 20260506180016 | 54 | 0 | 1.7 | 6.1 | 0.00 | 0.04 | 0.02 | 84 | 1007.2 |
| 20260506173017 | 55 | 270 | 1.7 | 8.7 | 0.00 | 0.06 | 0.02 | 83 | 1007.0 |
| 20260506170016 | 56 | 338 | 1.7 | 7.0 | 0.00 | 0.06 | 0.02 | 82 | 1006.8 |
| 20260506163016 | 57 | 0 | 1.7 | 7.0 | 0.00 | 0.06 | 0.02 | 81 | 1006.9 |
| 20260506160016 | 58 | 293 | 1.7 | 7.8 | 0.00 | 0.06 | 0.02 | 80 | 1006.6 |
| 20260506153016 | 57 | 270 | 1.7 | 7.8 | 0.00 | 0.06 | 0.02 | 83 | 1006.7 |
| 20260506150016 | 57 | 180 | 0.9 | 4.3 | 0.01 | 0.06 | 0.02 | 89 | 1006.6 |
| 20260506143016 | 56 | 158 | 1.7 | 6.1 | 0.01 | 0.07 | 0.02 | 89 | 1006.4 |
| 20260506140016 | 57 | 203 | 3.5 | 9.6 | 0.00 | 0.07 | 0.01 | 86 | 1006.3 |
| 20260506133017 | 61 | 180 | 3.5 | 12.2 | 0.00 | 0.09 | 0.01 | 74 | 1006.2 |
| 20260506130016 | 60 | 180 | 4.3 | 10.4 | 0.00 | 0.09 | 0.01 | 77 | 1006.1 |
| 20260506123016 | 58 | 180 | 3.5 | 10.4 | 0.00 | 0.11 | 0.01 | 82 | 1006.1 |
| 20260506120016 | 57 | 180 | 2.6 | 9.6 | 0.00 | 0.12 | 0.01 | 84 | 1006.2 |
| 20260506113015 | 58 | 180 | 3.5 | 11.3 | 0.00 | 0.13 | 0.01 | 82 | 1006.0 |
| 20260506110016 | 59 | 180 | 3.5 | 10.4 | 0.00 | 0.13 | 0.01 | 80 | 1006.0 |
| 20260506103016 | 58 | 203 | 3.5 | 10.4 | 0.00 | 0.13 | 0.01 | 81 | 1006.1 |
| 20260506100017 | 56 | 225 | 2.6 | 7.0 | 0.00 | 0.13 | 0.01 | 87 | 1005.9 |